sensor_id;sensor_type;location;lat;lon;timestamp;temperature;humidity
31038;DHT22;17702;47.590;7.666;2023-12-20T00:00:56;7.80;99.90
31038;DHT22;17702;47.590;7.666;2023-12-20T00:03:21;7.80;99.90
31038;DHT22;17702;47.590;7.666;2023-12-20T00:05:47;7.80;99.90
31038;DHT22;17702;47.590;7.666;2023-12-20T00:08:13;7.80;99.90
31038;DHT22;17702;47.590;7.666;2023-12-20T00:10:39;7.90;99.90
31038;DHT22;17702;47.590;7.666;2023-12-20T00:13:04;7.80;99.90
31038;DHT22;17702;47.590;7.666;2023-12-20T00:15:30;7.80;99.90
31038;DHT22;17702;47.590;7.666;2023-12-20T00:17:55;7.80;99.90
31038;DHT22;17702;47.590;7.666;2023-12-20T00:20:21;7.80;99.90
31038;DHT22;17702;47.590;7.666;2023-12-20T00:22:46;7.80;99.90
31038;DHT22;17702;47.590;7.666;2023-12-20T00:25:12;7.80;99.90
31038;DHT22;17702;47.590;7.666;2023-12-20T00:27:38;7.80;99.90
31038;DHT22;17702;47.590;7.666;2023-12-20T00:30:04;7.70;99.90
31038;DHT22;17702;47.590;7.666;2023-12-20T00:32:29;7.70;99.90
31038;DHT22;17702;47.590;7.666;2023-12-20T00:34:55;7.70;99.90
31038;DHT22;17702;47.590;7.666;2023-12-20T00:37:21;7.70;99.90
31038;DHT22;17702;47.590;7.666;2023-12-20T00:39:47;7.70;99.90
31038;DHT22;17702;47.590;7.666;2023-12-20T00:42:13;7.70;99.90
31038;DHT22;17702;47.590;7.666;2023-12-20T00:44:41;7.70;99.90
31038;DHT22;17702;47.590;7.666;2023-12-20T00:47:07;7.70;99.90
31038;DHT22;17702;47.590;7.666;2023-12-20T00:49:32;7.70;99.90
31038;DHT22;17702;47.590;7.666;2023-12-20T00:51:58;7.80;99.90
31038;DHT22;17702;47.590;7.666;2023-12-20T00:54:24;7.80;99.90
31038;DHT22;17702;47.590;7.666;2023-12-20T00:56:49;7.70;99.90
31038;DHT22;17702;47.590;7.666;2023-12-20T00:59:16;7.80;99.90
31038;DHT22;17702;47.590;7.666;2023-12-20T01:01:42;7.80;99.90
31038;DHT22;17702;47.590;7.666;2023-12-20T01:04:07;7.80;99.90
31038;DHT22;17702;47.590;7.666;2023-12-20T01:06:33;7.90;99.90
31038;DHT22;17702;47.590;7.666;2023-12-20T01:08:58;7.90;99.90
31038;DHT22;17702;47.590;7.666;2023-12-20T01:11:24;8.00;99.90
31038;DHT22;17702;47.590;7.666;2023-12-20T01:13:49;8.00;99.90
31038;DHT22;17702;47.590;7.666;2023-12-20T01:16:15;8.00;99.90
31038;DHT22;17702;47.590;7.666;2023-12-20T01:18:41;8.00;99.90
31038;DHT22;17702;47.590;7.666;2023-12-20T01:21:06;7.90;99.90
31038;DHT22;17702;47.590;7.666;2023-12-20T01:23:32;7.90;99.90
31038;DHT22;17702;47.590;7.666;2023-12-20T01:25:58;7.80;99.90
31038;DHT22;17702;47.590;7.666;2023-12-20T01:28:25;7.80;99.90
31038;DHT22;17702;47.590;7.666;2023-12-20T01:30:51;7.80;99.90
31038;DHT22;17702;47.590;7.666;2023-12-20T01:33:16;7.80;99.90
31038;DHT22;17702;47.590;7.666;2023-12-20T01:35:42;7.80;99.90
31038;DHT22;17702;47.590;7.666;2023-12-20T01:38:08;7.80;99.90
31038;DHT22;17702;47.590;7.666;2023-12-20T01:40:34;7.70;99.90
31038;DHT22;17702;47.590;7.666;2023-12-20T01:43:06;7.80;99.90
31038;DHT22;17702;47.590;7.666;2023-12-20T01:45:32;7.80;99.90
31038;DHT22;17702;47.590;7.666;2023-12-20T01:47:58;7.80;99.90
31038;DHT22;17702;47.590;7.666;2023-12-20T01:50:24;7.80;99.90
31038;DHT22;17702;47.590;7.666;2023-12-20T01:52:50;7.70;99.90
31038;DHT22;17702;47.590;7.666;2023-12-20T01:55:19;7.70;99.90
31038;DHT22;17702;47.590;7.666;2023-12-20T01:57:45;7.70;99.90
31038;DHT22;17702;47.590;7.666;2023-12-20T02:00:13;7.60;99.90
31038;DHT22;17702;47.590;7.666;2023-12-20T02:02:40;7.60;99.90
31038;DHT22;17702;47.590;7.666;2023-12-20T02:05:06;7.60;99.90
31038;DHT22;17702;47.590;7.666;2023-12-20T02:07:32;7.60;99.90
31038;DHT22;17702;47.590;7.666;2023-12-20T02:09:59;7.50;99.90
31038;DHT22;17702;47.590;7.666;2023-12-20T02:12:25;7.60;99.90
31038;DHT22;17702;47.590;7.666;2023-12-20T02:14:50;7.60;99.90
31038;DHT22;17702;47.590;7.666;2023-12-20T02:17:16;7.60;99.90
31038;DHT22;17702;47.590;7.666;2023-12-20T02:19:42;7.60;99.90
31038;DHT22;17702;47.590;7.666;2023-12-20T02:22:12;7.60;99.90
31038;DHT22;17702;47.590;7.666;2023-12-20T02:24:38;7.60;99.90
31038;DHT22;17702;47.590;7.666;2023-12-20T02:27:06;7.60;99.90
31038;DHT22;17702;47.590;7.666;2023-12-20T02:29:33;7.50;99.90
31038;DHT22;17702;47.590;7.666;2023-12-20T02:31:58;7.60;99.90
31038;DHT22;17702;47.590;7.666;2023-12-20T02:34:24;7.60;99.90
31038;DHT22;17702;47.590;7.666;2023-12-20T02:36:49;7.60;99.90
31038;DHT22;17702;47.590;7.666;2023-12-20T02:39:15;7.60;99.90
31038;DHT22;17702;47.590;7.666;2023-12-20T02:41:41;7.60;99.90
31038;DHT22;17702;47.590;7.666;2023-12-20T02:44:07;7.60;99.90
31038;DHT22;17702;47.590;7.666;2023-12-20T02:46:32;7.70;99.90
31038;DHT22;17702;47.590;7.666;2023-12-20T02:48:58;7.70;99.90
31038;DHT22;17702;47.590;7.666;2023-12-20T02:51:23;7.70;99.90
31038;DHT22;17702;47.590;7.666;2023-12-20T02:53:49;7.70;99.90
31038;DHT22;17702;47.590;7.666;2023-12-20T02:56:14;7.80;99.90
31038;DHT22;17702;47.590;7.666;2023-12-20T02:58:40;7.80;99.90
31038;DHT22;17702;47.590;7.666;2023-12-20T03:01:06;7.90;99.90
31038;DHT22;17702;47.590;7.666;2023-12-20T03:03:31;7.90;99.90
31038;DHT22;17702;47.590;7.666;2023-12-20T03:05:58;7.90;99.90
31038;DHT22;17702;47.590;7.666;2023-12-20T03:08:23;7.80;99.90
31038;DHT22;17702;47.590;7.666;2023-12-20T03:10:49;7.80;99.90
31038;DHT22;17702;47.590;7.666;2023-12-20T03:13:14;7.90;99.90
31038;DHT22;17702;47.590;7.666;2023-12-20T03:15:40;7.80;99.90
31038;DHT22;17702;47.590;7.666;2023-12-20T03:18:06;7.80;99.90
31038;DHT22;17702;47.590;7.666;2023-12-20T03:20:31;7.80;99.90
31038;DHT22;17702;47.590;7.666;2023-12-20T03:23:00;7.80;99.90
31038;DHT22;17702;47.590;7.666;2023-12-20T03:25:25;7.80;99.90
31038;DHT22;17702;47.590;7.666;2023-12-20T03:27:51;7.80;99.90
31038;DHT22;17702;47.590;7.666;2023-12-20T03:30:17;7.90;99.90
31038;DHT22;17702;47.590;7.666;2023-12-20T03:32:42;7.90;99.90
31038;DHT22;17702;47.590;7.666;2023-12-20T03:35:08;7.90;99.90
31038;DHT22;17702;47.590;7.666;2023-12-20T03:37:33;7.90;99.90
31038;DHT22;17702;47.590;7.666;2023-12-20T03:39:59;8.00;99.90
31038;DHT22;17702;47.590;7.666;2023-12-20T03:42:25;8.00;99.90
31038;DHT22;17702;47.590;7.666;2023-12-20T03:44:50;8.00;99.90
31038;DHT22;17702;47.590;7.666;2023-12-20T03:47:16;8.00;99.90
31038;DHT22;17702;47.590;7.666;2023-12-20T03:49:42;8.00;99.90
31038;DHT22;17702;47.590;7.666;2023-12-20T03:52:07;8.00;99.90
31038;DHT22;17702;47.590;7.666;2023-12-20T03:54:34;8.00;99.90
31038;DHT22;17702;47.590;7.666;2023-12-20T03:57:00;8.00;99.90
31038;DHT22;17702;47.590;7.666;2023-12-20T03:59:25;8.00;99.90
31038;DHT22;17702;47.590;7.666;2023-12-20T04:01:51;8.00;99.90
31038;DHT22;17702;47.590;7.666;2023-12-20T04:04:17;8.10;99.90
31038;DHT22;17702;47.590;7.666;2023-12-20T04:06:42;8.10;99.90
31038;DHT22;17702;47.590;7.666;2023-12-20T04:09:08;8.10;99.90
31038;DHT22;17702;47.590;7.666;2023-12-20T04:11:37;8.10;99.90
31038;DHT22;17702;47.590;7.666;2023-12-20T04:14:03;8.10;99.90
31038;DHT22;17702;47.590;7.666;2023-12-20T04:16:30;8.10;99.90
31038;DHT22;17702;47.590;7.666;2023-12-20T04:18:56;8.10;99.90
31038;DHT22;17702;47.590;7.666;2023-12-20T04:21:21;8.10;99.90
31038;DHT22;17702;47.590;7.666;2023-12-20T04:23:47;8.10;99.90
31038;DHT22;17702;47.590;7.666;2023-12-20T04:26:13;8.10;99.90
31038;DHT22;17702;47.590;7.666;2023-12-20T04:28:38;8.20;99.90
31038;DHT22;17702;47.590;7.666;2023-12-20T04:31:04;8.20;99.90
31038;DHT22;17702;47.590;7.666;2023-12-20T04:33:29;8.20;99.90
31038;DHT22;17702;47.590;7.666;2023-12-20T04:35:55;8.20;99.90
31038;DHT22;17702;47.590;7.666;2023-12-20T04:38:21;8.20;99.90
31038;DHT22;17702;47.590;7.666;2023-12-20T04:40:46;8.30;99.90
31038;DHT22;17702;47.590;7.666;2023-12-20T04:43:13;8.30;99.90
31038;DHT22;17702;47.590;7.666;2023-12-20T04:45:38;8.30;99.90
31038;DHT22;17702;47.590;7.666;2023-12-20T04:48:05;8.30;99.90
31038;DHT22;17702;47.590;7.666;2023-12-20T04:50:30;8.40;99.90
31038;DHT22;17702;47.590;7.666;2023-12-20T04:52:56;8.40;99.90
31038;DHT22;17702;47.590;7.666;2023-12-20T04:55:21;8.40;99.90
31038;DHT22;17702;47.590;7.666;2023-12-20T04:57:47;8.40;99.90
31038;DHT22;17702;47.590;7.666;2023-12-20T05:00:13;8.40;99.90
31038;DHT22;17702;47.590;7.666;2023-12-20T05:02:40;8.40;99.90
31038;DHT22;17702;47.590;7.666;2023-12-20T05:05:06;8.40;99.90
31038;DHT22;17702;47.590;7.666;2023-12-20T05:07:32;8.40;99.90
31038;DHT22;17702;47.590;7.666;2023-12-20T05:09:58;8.40;99.90
31038;DHT22;17702;47.590;7.666;2023-12-20T05:12:24;8.40;99.90
31038;DHT22;17702;47.590;7.666;2023-12-20T05:14:51;8.40;99.90
31038;DHT22;17702;47.590;7.666;2023-12-20T05:17:17;8.40;99.90
31038;DHT22;17702;47.590;7.666;2023-12-20T05:19:42;8.40;99.90
31038;DHT22;17702;47.590;7.666;2023-12-20T05:22:08;8.40;99.90
31038;DHT22;17702;47.590;7.666;2023-12-20T05:24:33;8.40;99.90
31038;DHT22;17702;47.590;7.666;2023-12-20T05:26:59;8.40;99.90
31038;DHT22;17702;47.590;7.666;2023-12-20T05:29:25;8.40;99.90
31038;DHT22;17702;47.590;7.666;2023-12-20T05:31:50;8.40;99.90
31038;DHT22;17702;47.590;7.666;2023-12-20T05:34:16;8.40;99.90
31038;DHT22;17702;47.590;7.666;2023-12-20T05:36:42;8.40;99.90
31038;DHT22;17702;47.590;7.666;2023-12-20T05:39:07;8.40;99.90
31038;DHT22;17702;47.590;7.666;2023-12-20T05:41:33;8.40;99.90
31038;DHT22;17702;47.590;7.666;2023-12-20T05:43:59;8.50;99.90
31038;DHT22;17702;47.590;7.666;2023-12-20T05:46:25;8.50;99.90
31038;DHT22;17702;47.590;7.666;2023-12-20T05:48:50;8.50;99.90
31038;DHT22;17702;47.590;7.666;2023-12-20T05:51:17;8.60;99.90
31038;DHT22;17702;47.590;7.666;2023-12-20T05:53:42;8.60;99.90
31038;DHT22;17702;47.590;7.666;2023-12-20T05:56:09;8.60;99.90
31038;DHT22;17702;47.590;7.666;2023-12-20T05:58:35;8.60;99.90
31038;DHT22;17702;47.590;7.666;2023-12-20T06:01:03;8.60;99.90
31038;DHT22;17702;47.590;7.666;2023-12-20T06:03:29;8.60;99.90
31038;DHT22;17702;47.590;7.666;2023-12-20T06:05:54;8.60;99.90
31038;DHT22;17702;47.590;7.666;2023-12-20T06:08:20;8.60;99.90
31038;DHT22;17702;47.590;7.666;2023-12-20T06:10:45;8.60;99.90
31038;DHT22;17702;47.590;7.666;2023-12-20T06:13:11;8.60;99.90
31038;DHT22;17702;47.590;7.666;2023-12-20T06:15:38;8.70;99.90
31038;DHT22;17702;47.590;7.666;2023-12-20T06:18:04;8.60;99.90
31038;DHT22;17702;47.590;7.666;2023-12-20T06:20:29;8.70;99.90
31038;DHT22;17702;47.590;7.666;2023-12-20T06:22:55;8.60;99.90
31038;DHT22;17702;47.590;7.666;2023-12-20T06:25:21;8.60;99.90
31038;DHT22;17702;47.590;7.666;2023-12-20T06:27:46;8.60;99.90
31038;DHT22;17702;47.590;7.666;2023-12-20T06:30:12;8.60;99.90
31038;DHT22;17702;47.590;7.666;2023-12-20T06:32:38;8.60;99.90
31038;DHT22;17702;47.590;7.666;2023-12-20T06:35:05;8.60;99.90
31038;DHT22;17702;47.590;7.666;2023-12-20T06:37:30;8.60;99.90
31038;DHT22;17702;47.590;7.666;2023-12-20T06:39:56;8.60;99.90
31038;DHT22;17702;47.590;7.666;2023-12-20T06:42:22;8.60;99.90
31038;DHT22;17702;47.590;7.666;2023-12-20T06:44:48;8.70;99.90
31038;DHT22;17702;47.590;7.666;2023-12-20T06:47:14;8.60;99.90
31038;DHT22;17702;47.590;7.666;2023-12-20T06:49:49;8.60;99.90
31038;DHT22;17702;47.590;7.666;2023-12-20T06:52:15;8.60;99.90
31038;DHT22;17702;47.590;7.666;2023-12-20T06:54:41;8.60;99.90
31038;DHT22;17702;47.590;7.666;2023-12-20T06:57:06;8.70;99.90
31038;DHT22;17702;47.590;7.666;2023-12-20T06:59:32;8.70;99.90
31038;DHT22;17702;47.590;7.666;2023-12-20T07:02:08;8.70;99.90
31038;DHT22;17702;47.590;7.666;2023-12-20T07:04:35;8.70;99.90
31038;DHT22;17702;47.590;7.666;2023-12-20T07:07:04;8.70;99.90
31038;DHT22;17702;47.590;7.666;2023-12-20T07:09:29;8.70;99.90
31038;DHT22;17702;47.590;7.666;2023-12-20T07:11:55;8.70;99.90
31038;DHT22;17702;47.590;7.666;2023-12-20T07:14:20;8.70;99.90
31038;DHT22;17702;47.590;7.666;2023-12-20T07:16:46;8.70;99.90
31038;DHT22;17702;47.590;7.666;2023-12-20T07:19:11;8.70;99.90
31038;DHT22;17702;47.590;7.666;2023-12-20T07:21:37;8.70;99.90
31038;DHT22;17702;47.590;7.666;2023-12-20T07:24:03;8.80;99.90
31038;DHT22;17702;47.590;7.666;2023-12-20T07:26:28;8.80;99.90
31038;DHT22;17702;47.590;7.666;2023-12-20T07:28:54;8.70;99.90
31038;DHT22;17702;47.590;7.666;2023-12-20T07:31:19;8.80;99.90
31038;DHT22;17702;47.590;7.666;2023-12-20T07:33:45;8.80;99.90
31038;DHT22;17702;47.590;7.666;2023-12-20T07:36:11;8.80;99.90
31038;DHT22;17702;47.590;7.666;2023-12-20T07:38:37;8.70;99.90
31038;DHT22;17702;47.590;7.666;2023-12-20T07:41:02;8.70;99.90
31038;DHT22;17702;47.590;7.666;2023-12-20T07:43:28;8.60;99.90
31038;DHT22;17702;47.590;7.666;2023-12-20T07:45:54;8.60;99.90
31038;DHT22;17702;47.590;7.666;2023-12-20T07:48:19;8.60;99.90
31038;DHT22;17702;47.590;7.666;2023-12-20T07:50:45;8.70;99.90
31038;DHT22;17702;47.590;7.666;2023-12-20T07:53:10;8.70;99.90
31038;DHT22;17702;47.590;7.666;2023-12-20T07:55:36;8.60;99.90
31038;DHT22;17702;47.590;7.666;2023-12-20T07:58:01;8.60;99.90
31038;DHT22;17702;47.590;7.666;2023-12-20T08:00:27;8.70;99.90
31038;DHT22;17702;47.590;7.666;2023-12-20T08:02:53;8.70;99.90
31038;DHT22;17702;47.590;7.666;2023-12-20T08:05:18;8.70;99.90
31038;DHT22;17702;47.590;7.666;2023-12-20T08:07:44;8.70;99.90
31038;DHT22;17702;47.590;7.666;2023-12-20T08:10:10;8.80;99.90
31038;DHT22;17702;47.590;7.666;2023-12-20T08:12:36;8.80;99.90
31038;DHT22;17702;47.590;7.666;2023-12-20T08:15:02;8.70;99.90
31038;DHT22;17702;47.590;7.666;2023-12-20T08:17:29;8.70;99.90
31038;DHT22;17702;47.590;7.666;2023-12-20T08:19:54;8.70;99.90
31038;DHT22;17702;47.590;7.666;2023-12-20T08:22:20;8.70;99.90
31038;DHT22;17702;47.590;7.666;2023-12-20T08:24:46;8.70;99.90
31038;DHT22;17702;47.590;7.666;2023-12-20T08:27:11;8.70;99.90
31038;DHT22;17702;47.590;7.666;2023-12-20T08:29:37;8.80;99.90
31038;DHT22;17702;47.590;7.666;2023-12-20T08:32:02;8.80;99.90
31038;DHT22;17702;47.590;7.666;2023-12-20T08:34:28;8.80;99.90
31038;DHT22;17702;47.590;7.666;2023-12-20T08:36:54;8.80;99.90
31038;DHT22;17702;47.590;7.666;2023-12-20T08:39:19;8.80;99.90
31038;DHT22;17702;47.590;7.666;2023-12-20T08:41:45;8.80;99.90
31038;DHT22;17702;47.590;7.666;2023-12-20T08:44:10;8.90;99.90
31038;DHT22;17702;47.590;7.666;2023-12-20T08:46:36;8.80;99.90
31038;DHT22;17702;47.590;7.666;2023-12-20T08:49:02;8.80;99.90
31038;DHT22;17702;47.590;7.666;2023-12-20T08:51:28;8.90;99.90
31038;DHT22;17702;47.590;7.666;2023-12-20T08:53:54;8.90;99.90
31038;DHT22;17702;47.590;7.666;2023-12-20T08:56:20;8.90;99.90
31038;DHT22;17702;47.590;7.666;2023-12-20T08:58:46;8.90;99.90
31038;DHT22;17702;47.590;7.666;2023-12-20T09:01:13;8.90;99.90
31038;DHT22;17702;47.590;7.666;2023-12-20T09:03:39;8.90;99.90
31038;DHT22;17702;47.590;7.666;2023-12-20T09:06:05;8.90;99.90
31038;DHT22;17702;47.590;7.666;2023-12-20T09:08:32;8.90;99.90
31038;DHT22;17702;47.590;7.666;2023-12-20T09:10:57;8.80;99.90
31038;DHT22;17702;47.590;7.666;2023-12-20T09:13:23;8.80;99.90
31038;DHT22;17702;47.590;7.666;2023-12-20T09:15:57;8.80;99.90
31038;DHT22;17702;47.590;7.666;2023-12-20T09:18:23;8.90;99.90
31038;DHT22;17702;47.590;7.666;2023-12-20T09:20:49;9.00;99.90
31038;DHT22;17702;47.590;7.666;2023-12-20T09:23:15;8.90;99.90
31038;DHT22;17702;47.590;7.666;2023-12-20T09:25:40;8.90;99.90
31038;DHT22;17702;47.590;7.666;2023-12-20T09:28:06;8.80;99.90
31038;DHT22;17702;47.590;7.666;2023-12-20T09:30:31;8.70;99.90
31038;DHT22;17702;47.590;7.666;2023-12-20T09:32:57;8.60;99.90
31038;DHT22;17702;47.590;7.666;2023-12-20T09:35:23;8.60;99.90
31038;DHT22;17702;47.590;7.666;2023-12-20T09:37:49;8.60;99.90
31038;DHT22;17702;47.590;7.666;2023-12-20T09:40:18;8.60;99.90
31038;DHT22;17702;47.590;7.666;2023-12-20T09:42:56;8.60;99.90
31038;DHT22;17702;47.590;7.666;2023-12-20T09:45:22;8.70;99.90
31038;DHT22;17702;47.590;7.666;2023-12-20T09:47:49;8.70;99.90
31038;DHT22;17702;47.590;7.666;2023-12-20T09:50:17;8.70;99.90
31038;DHT22;17702;47.590;7.666;2023-12-20T09:52:43;8.70;99.90
31038;DHT22;17702;47.590;7.666;2023-12-20T09:55:11;8.70;99.90
31038;DHT22;17702;47.590;7.666;2023-12-20T09:57:37;8.80;99.90
31038;DHT22;17702;47.590;7.666;2023-12-20T10:00:03;8.80;99.90
31038;DHT22;17702;47.590;7.666;2023-12-20T10:02:30;8.70;99.90
31038;DHT22;17702;47.590;7.666;2023-12-20T10:04:57;8.70;99.90
31038;DHT22;17702;47.590;7.666;2023-12-20T10:07:23;8.90;99.90
31038;DHT22;17702;47.590;7.666;2023-12-20T10:09:49;8.90;99.90
31038;DHT22;17702;47.590;7.666;2023-12-20T10:12:15;9.00;99.90
31038;DHT22;17702;47.590;7.666;2023-12-20T10:14:41;9.00;99.90
31038;DHT22;17702;47.590;7.666;2023-12-20T10:17:06;9.00;99.90
31038;DHT22;17702;47.590;7.666;2023-12-20T10:19:32;9.00;99.90
31038;DHT22;17702;47.590;7.666;2023-12-20T10:21:59;9.00;99.90
31038;DHT22;17702;47.590;7.666;2023-12-20T10:24:25;9.10;99.90
31038;DHT22;17702;47.590;7.666;2023-12-20T10:27:04;9.00;99.90
31038;DHT22;17702;47.590;7.666;2023-12-20T10:29:36;9.10;99.90
31038;DHT22;17702;47.590;7.666;2023-12-20T10:32:23;9.40;99.90
31038;DHT22;17702;47.590;7.666;2023-12-20T10:34:53;9.50;99.90
31038;DHT22;17702;47.590;7.666;2023-12-20T10:37:19;9.50;99.90
31038;DHT22;17702;47.590;7.666;2023-12-20T10:39:51;9.40;99.90
31038;DHT22;17702;47.590;7.666;2023-12-20T10:42:20;9.50;99.90
31038;DHT22;17702;47.590;7.666;2023-12-20T10:44:47;9.60;99.90
31038;DHT22;17702;47.590;7.666;2023-12-20T10:47:15;9.60;99.90
31038;DHT22;17702;47.590;7.666;2023-12-20T10:49:41;9.80;99.90
31038;DHT22;17702;47.590;7.666;2023-12-20T10:52:07;9.80;99.90
31038;DHT22;17702;47.590;7.666;2023-12-20T10:54:34;9.90;99.90
31038;DHT22;17702;47.590;7.666;2023-12-20T10:57:00;10.00;99.90
31038;DHT22;17702;47.590;7.666;2023-12-20T10:59:29;10.10;99.90
31038;DHT22;17702;47.590;7.666;2023-12-20T11:01:59;10.20;99.90
31038;DHT22;17702;47.590;7.666;2023-12-20T11:05:10;10.20;99.90
31038;DHT22;17702;47.590;7.666;2023-12-20T11:07:40;10.30;99.90
31038;DHT22;17702;47.590;7.666;2023-12-20T11:10:19;10.20;99.90
31038;DHT22;17702;47.590;7.666;2023-12-20T11:13:02;10.20;99.90
31038;DHT22;17702;47.590;7.666;2023-12-20T11:15:35;10.20;99.90
31038;DHT22;17702;47.590;7.666;2023-12-20T11:18:01;10.00;99.90
31038;DHT22;17702;47.590;7.666;2023-12-20T11:20:40;10.00;99.90
31038;DHT22;17702;47.590;7.666;2023-12-20T11:23:07;9.90;99.90
31038;DHT22;17702;47.590;7.666;2023-12-20T11:25:52;9.80;99.90
31038;DHT22;17702;47.590;7.666;2023-12-20T11:28:22;9.90;99.90
31038;DHT22;17702;47.590;7.666;2023-12-20T11:30:56;10.00;99.90
31038;DHT22;17702;47.590;7.666;2023-12-20T11:33:24;10.00;99.90
31038;DHT22;17702;47.590;7.666;2023-12-20T11:35:50;10.00;99.90
31038;DHT22;17702;47.590;7.666;2023-12-20T11:38:16;10.00;99.90
31038;DHT22;17702;47.590;7.666;2023-12-20T11:40:43;10.00;99.90
31038;DHT22;17702;47.590;7.666;2023-12-20T11:43:09;10.00;99.90
31038;DHT22;17702;47.590;7.666;2023-12-20T11:45:35;9.90;99.90
31038;DHT22;17702;47.590;7.666;2023-12-20T11:48:04;10.00;99.90
31038;DHT22;17702;47.590;7.666;2023-12-20T11:50:31;9.80;99.90
31038;DHT22;17702;47.590;7.666;2023-12-20T11:52:57;9.70;99.90
31038;DHT22;17702;47.590;7.666;2023-12-20T11:55:23;9.60;99.90
31038;DHT22;17702;47.590;7.666;2023-12-20T11:57:50;9.60;99.90
31038;DHT22;17702;47.590;7.666;2023-12-20T12:00:17;9.60;99.90
31038;DHT22;17702;47.590;7.666;2023-12-20T12:02:43;9.60;99.90
31038;DHT22;17702;47.590;7.666;2023-12-20T12:05:08;9.60;99.90
31038;DHT22;17702;47.590;7.666;2023-12-20T12:07:35;9.60;99.90
31038;DHT22;17702;47.590;7.666;2023-12-20T12:10:01;9.60;99.90
31038;DHT22;17702;47.590;7.666;2023-12-20T12:12:26;9.70;99.90
31038;DHT22;17702;47.590;7.666;2023-12-20T12:14:53;9.70;99.90
31038;DHT22;17702;47.590;7.666;2023-12-20T12:17:19;9.70;99.90
31038;DHT22;17702;47.590;7.666;2023-12-20T12:19:45;9.80;99.90
31038;DHT22;17702;47.590;7.666;2023-12-20T12:22:13;9.70;99.20
31038;DHT22;17702;47.590;7.666;2023-12-20T12:24:47;9.60;99.20
31038;DHT22;17702;47.590;7.666;2023-12-20T12:27:13;9.50;99.20
31038;DHT22;17702;47.590;7.666;2023-12-20T12:29:39;9.50;99.90
31038;DHT22;17702;47.590;7.666;2023-12-20T12:32:09;9.50;98.90
31038;DHT22;17702;47.590;7.666;2023-12-20T12:34:35;9.50;99.80
31038;DHT22;17702;47.590;7.666;2023-12-20T12:37:01;9.60;99.30
31038;DHT22;17702;47.590;7.666;2023-12-20T12:39:27;9.60;98.60
31038;DHT22;17702;47.590;7.666;2023-12-20T12:41:53;9.60;98.60
31038;DHT22;17702;47.590;7.666;2023-12-20T12:44:19;9.50;97.80
31038;DHT22;17702;47.590;7.666;2023-12-20T12:46:48;9.60;98.20
31038;DHT22;17702;47.590;7.666;2023-12-20T12:49:19;9.50;97.50
31038;DHT22;17702;47.590;7.666;2023-12-20T12:51:44;9.40;98.50
31038;DHT22;17702;47.590;7.666;2023-12-20T12:54:10;9.40;97.80
31038;DHT22;17702;47.590;7.666;2023-12-20T12:56:36;9.30;97.10
31038;DHT22;17702;47.590;7.666;2023-12-20T12:59:02;9.30;97.70
31038;DHT22;17702;47.590;7.666;2023-12-20T13:01:28;9.30;98.20
31038;DHT22;17702;47.590;7.666;2023-12-20T13:03:53;9.10;96.70
31038;DHT22;17702;47.590;7.666;2023-12-20T13:06:20;9.00;98.20
31038;DHT22;17702;47.590;7.666;2023-12-20T13:08:45;9.00;97.50
31038;DHT22;17702;47.590;7.666;2023-12-20T13:11:11;9.00;97.70
31038;DHT22;17702;47.590;7.666;2023-12-20T13:13:37;8.80;97.20
31038;DHT22;17702;47.590;7.666;2023-12-20T13:16:02;8.80;97.80
31038;DHT22;17702;47.590;7.666;2023-12-20T13:18:28;8.80;98.20
31038;DHT22;17702;47.590;7.666;2023-12-20T13:20:53;8.70;97.30
31038;DHT22;17702;47.590;7.666;2023-12-20T13:23:19;8.70;97.90
31038;DHT22;17702;47.590;7.666;2023-12-20T13:25:45;8.70;97.60
31038;DHT22;17702;47.590;7.666;2023-12-20T13:28:13;8.80;98.70
31038;DHT22;17702;47.590;7.666;2023-12-20T13:30:39;8.70;97.30
31038;DHT22;17702;47.590;7.666;2023-12-20T13:33:05;8.80;97.70
31038;DHT22;17702;47.590;7.666;2023-12-20T13:35:32;8.70;97.20
31038;DHT22;17702;47.590;7.666;2023-12-20T13:37:58;8.90;97.20
31038;DHT22;17702;47.590;7.666;2023-12-20T13:40:24;8.90;96.40
31038;DHT22;17702;47.590;7.666;2023-12-20T13:42:50;9.00;96.00
31038;DHT22;17702;47.590;7.666;2023-12-20T13:45:16;9.00;95.90
31038;DHT22;17702;47.590;7.666;2023-12-20T13:47:41;9.00;95.40
31038;DHT22;17702;47.590;7.666;2023-12-20T13:50:07;9.10;95.90
31038;DHT22;17702;47.590;7.666;2023-12-20T13:52:33;9.20;95.90
31038;DHT22;17702;47.590;7.666;2023-12-20T13:54:58;9.20;96.00
31038;DHT22;17702;47.590;7.666;2023-12-20T13:57:24;9.20;95.30
31038;DHT22;17702;47.590;7.666;2023-12-20T13:59:49;9.20;95.00
31038;DHT22;17702;47.590;7.666;2023-12-20T14:02:15;9.20;95.60
31038;DHT22;17702;47.590;7.666;2023-12-20T14:04:42;9.20;95.30
31038;DHT22;17702;47.590;7.666;2023-12-20T14:07:07;9.20;95.60
31038;DHT22;17702;47.590;7.666;2023-12-20T14:09:34;9.20;95.50
31038;DHT22;17702;47.590;7.666;2023-12-20T14:11:59;9.20;95.10
31038;DHT22;17702;47.590;7.666;2023-12-20T14:14:25;9.20;94.70
31038;DHT22;17702;47.590;7.666;2023-12-20T14:16:50;9.10;94.20
31038;DHT22;17702;47.590;7.666;2023-12-20T14:19:16;9.10;94.90
31038;DHT22;17702;47.590;7.666;2023-12-20T14:21:42;9.10;95.10
31038;DHT22;17702;47.590;7.666;2023-12-20T14:24:07;9.10;95.90
31038;DHT22;17702;47.590;7.666;2023-12-20T14:26:33;9.00;94.70
31038;DHT22;17702;47.590;7.666;2023-12-20T14:28:58;9.00;95.70
31038;DHT22;17702;47.590;7.666;2023-12-20T14:31:24;9.00;95.70
31038;DHT22;17702;47.590;7.666;2023-12-20T14:33:51;9.00;95.80
31038;DHT22;17702;47.590;7.666;2023-12-20T14:36:18;9.00;96.10
31038;DHT22;17702;47.590;7.666;2023-12-20T14:38:45;9.00;95.10
31038;DHT22;17702;47.590;7.666;2023-12-20T14:41:12;9.00;95.20
31038;DHT22;17702;47.590;7.666;2023-12-20T14:43:37;9.00;95.10
31038;DHT22;17702;47.590;7.666;2023-12-20T14:46:03;9.00;96.10
31038;DHT22;17702;47.590;7.666;2023-12-20T14:48:30;9.10;95.80
31038;DHT22;17702;47.590;7.666;2023-12-20T14:50:57;9.10;95.80
31038;DHT22;17702;47.590;7.666;2023-12-20T14:53:24;9.10;95.60
31038;DHT22;17702;47.590;7.666;2023-12-20T14:55:50;9.10;94.70
31038;DHT22;17702;47.590;7.666;2023-12-20T14:58:16;9.00;94.50
31038;DHT22;17702;47.590;7.666;2023-12-20T15:00:42;9.00;94.70
31038;DHT22;17702;47.590;7.666;2023-12-20T15:03:09;8.90;94.90
31038;DHT22;17702;47.590;7.666;2023-12-20T15:05:34;8.90;94.30
31038;DHT22;17702;47.590;7.666;2023-12-20T15:08:01;8.80;94.20
31038;DHT22;17702;47.590;7.666;2023-12-20T15:10:26;8.70;94.40
31038;DHT22;17702;47.590;7.666;2023-12-20T15:12:52;8.60;94.50
31038;DHT22;17702;47.590;7.666;2023-12-20T15:15:18;8.60;94.10
31038;DHT22;17702;47.590;7.666;2023-12-20T15:17:44;8.60;95.10
31038;DHT22;17702;47.590;7.666;2023-12-20T15:20:10;8.60;95.40
31038;DHT22;17702;47.590;7.666;2023-12-20T15:22:36;8.70;95.40
31038;DHT22;17702;47.590;7.666;2023-12-20T15:25:03;8.70;95.60
31038;DHT22;17702;47.590;7.666;2023-12-20T15:27:30;8.70;95.20
31038;DHT22;17702;47.590;7.666;2023-12-20T15:29:56;8.70;95.80
31038;DHT22;17702;47.590;7.666;2023-12-20T15:32:22;8.70;95.70
31038;DHT22;17702;47.590;7.666;2023-12-20T15:34:47;8.70;96.00
31038;DHT22;17702;47.590;7.666;2023-12-20T15:37:14;8.80;95.60
31038;DHT22;17702;47.590;7.666;2023-12-20T15:39:41;8.70;95.70